Delta Virtual Airport Information Service

Calgary International Airport

ICAO: CYYC Country: Canada
Latitude: 51.1139 Longitude: -114.02
Latest Arrival : FDX140 (4) (KMEM-CYYC) Latest Departure : WJA191 (CYYC-CYXX)


WX CaptureLIVE
Data provided by noaa.gov | Fetched at 07:37:57

METAR : CYYC 061300Z VRB02KT 15SM SKC 00/M07 A2960 RMK SLP055

TAF : CYYC 061138Z 0612/0712 20008KT P6SM SCT220 FM061500 20010G20KT P6SM FEW080 BKN240 FM061900 21012G22KT P6SM SCT080 BKN200 TEMPO 0619/0623 P6SM -SHRASN BKN080 BKN200 BECMG 0619/0621 34015G25KT FM062300 35010KT P6SM FEW080 SCT150 BECMG 0701/0703 27010KT RMK NXT FCST BY 061500Z


Runway Data for CYYC
Data provided by openaviationdata.com

Runway ID Mag Var Hdg Length Elevation Surface ILS Freq ILS Id ILS Slope
7 17 73° 6187 ft 3556 ft Asphalt -- -- --
10 17 103° 7983 ft 3556 ft Asphalt -- -- --
16 17 163° 12659 ft 3556 ft Asphalt 109.3 IEM 3
25 17 253° 6187 ft 3556 ft Asphalt -- -- --
28 17 283° 7983 ft 3556 ft Asphalt 110.9 IAQ 3
34 17 343° 12659 ft 3556 ft Asphalt 111.5 IYC 3

Calgary International Airport, Canada
Use only for reference purposes



Not for navigational purposes.